Terminal Aerodrome Forecast
Issued by NWS

Home | Current Version | Previous Version | Text Only | Print | Product List | Glossary On
Versions: 1 2 3 4 5 6 7 8 9 10 11 12 13 14 15 16 17 18
000
FTUS42 KGSP 020542
TAFGMU
TAF
KGMU 020542Z 0206/0306 10003KT P6SM SCT250
     FM020700 12006KT P6SM BKN110
     FM021200 09004KT P6SM BKN019
     FM021700 16005KT P6SM VCSH OVC011
     FM022200 21005KT 6SM -RA BR OVC011
     FM030300 21004KT P6SM OVC012=

USA.gov is the U.S. government's official web portal to all federal, state and local government web resources and services.